Aviation Digital Data Service (ADDS)

Output produced by METARs form (0514 UTC 24 September 2018)
found at http://www.aviationweather.gov/metar/data/
 
KGLH 240453Z AUTO 15003KT 10SM CLR 23/22 A2994 RMK AO2 SLP143 T02280217
KGLH 240353Z AUTO 00000KT 10SM CLR 22/21 A2994 RMK AO2 SLP144 T02220211
KGLH 240253Z AUTO 14004KT 10SM CLR 22/21 A2994 RMK AO2 SLP145 60001 T02220206 53004
KGLH 240213Z AUTO 11005KT 10SM SCT004 22/21 A2994 RMK AO2 T02220211
KGLH 240153Z AUTO 09005KT 10SM BKN004 BKN100 23/21 A2993 RMK AO2 RAE20 SLP141 P0000 T02280211
KGLH 240127Z AUTO 08003KT 10SM FEW004 SCT070 OVC100 23/21 A2993 RMK AO2 RAE20 P0000 T02280211
KGLH 240053Z AUTO 07005KT 10SM -RA OVC095 23/21 A2992 RMK AO2 RAB09 SLP137 P0001 T02280211
KGLH 232353Z AUTO 13003KT 10SM FEW039 BKN060 OVC085 22/21 A2993 RMK AO2 RAB11E52 SLP141 P0014 60014 T02220211 10294 20222 53014
KGLH 232342Z AUTO 11005KT 5SM RA BR FEW014 BKN047 OVC060 22/21 A2993 RMK AO2 RAB11 P0014 T02220211
KGLH 232334Z AUTO 12006KT 2SM RA BR SCT014 BKN039 OVC060 23/21 A2993 RMK AO2 RAB11 P0013 T02280211
KGLH 232325Z 11004KT 1 1/2SM +RA BR SCT014 BKN022 OVC043 23/21 A2994 RMK AO2 VIS 1V4 RAB11 P0008 T02280211
KGLH 232319Z 12006KT 2 1/2SM +RA BKN014 BKN021 OVC026 23/21 A2994 RMK AO2 RAB11 P0004 T02330206
KGLH 232253Z 10013G24KT 070V170 10SM SCT014 BKN023 BKN065 24/21 A2992 RMK AO2 LTG DSNT S AND SW SLP138 T02440206
KGLH 232205Z 35008KT 10SM FEW024 SCT028 28/22 A2989 RMK AO2 LTG DSNT SE AND S T02780217
KGLH 232153Z 36008KT 10SM BKN028 28/22 A2989 RMK AO2 LTG DSNT E-S SLP126 T02780217
KGLH 232140Z 36006KT 10SM BKN028 29/22 A2988 RMK AO2 LTG DSNT E AND SE T02940222
KGLH 232053Z 32009KT 10SM SCT033 28/21 A2989 RMK AO2 SLP126 T02830211 56027
KGLH 232005Z VRB03KT 10SM BKN033 28/21 A2990 RMK AO2 T02830211
KGLH 231953Z 23005KT 10SM BKN029 BKN070 29/22 A2991 RMK AO2 SLP132 T02940217
KGLH 231912Z 00000KT 10SM SCT022 SCT028 SCT120 28/22 A2993 RMK AO2 T02830217
KGLH 231853Z 30004KT 10SM BKN022 BKN028 BKN120 28/22 A2994 RMK AO2 SLP142 T02780217
KGLH 231801Z 24004KT 9SM BKN015 26/22 A2996 RMK AO2 T02610217
KGLH 231753Z 21004KT 9SM SCT013 26/22 A2997 RMK AO2 SLP153 60000 T02610217 10261 20211 58006
KGLH 231736Z 19004KT 8SM SCT011 SCT100 26/22 A2997 RMK AO2 T02560217
KGLH 231715Z 21003KT 7SM FEW007 BKN011 BKN100 24/22 A2998 RMK AO2 T02440217
KGLH 231653Z 00000KT 5SM BR OVC009 24/22 A2998 RMK AO2 CIG 006V013 SLP158 T02390217
KGLH 231626Z 15003KT 5SM BR OVC006 23/21 A2999 RMK AO2 CIG 004V009 T02330211
KGLH 231600Z 00000KT 3SM BR OVC003 23/21 A2999 RMK AO2 T02280211
KGLH 231553Z 00000KT 2 1/2SM BR OVC003 23/21 A2999 RMK AO2 SLP162 T02280211
KGLH 231528Z 02003KT 2SM BR OVC003 23/21 A2999 RMK AO2 T02280211
KGLH 231520Z 00000KT 1 1/2SM BR OVC002 22/21 A2999 RMK AO2 T02220211
KGLH 231503Z 00000KT 1/2SM FG VV002 22/21 A2999 RMK AO2 T02220211
KGLH 231453Z 00000KT 1/4SM FG VV002 22/21 A2999 RMK AO2 RAB26E40 SLP161 P0000 60000 T02220211 51009
KGLH 231353Z 00000KT 1/4SM FG VV002 22/21 A2998 RMK AO2 SLP157 T02170206
KGLH 231319Z 36004KT 1/4SM FG OVC002 22/21 A2997 RMK AO2 T02170206
KGLH 231301Z 00000KT 1 1/4SM BR OVC002 22/21 A2996 RMK AO2 T02170206
KGLH 231253Z 00000KT 3/4SM BR OVC002 22/21 A2996 RMK AO2 SLP152 T02170206
KGLH 231232Z 00000KT 1 1/2SM BR OVC003 21/21 A2996 RMK AO2 T02110206
KGLH 231153Z 00000KT 1/2SM FG VV002 21/20 A2995 RMK AO2 SLP147 60000 70002 T02110200 10211 20211 53002
KGLH 231126Z AUTO 36003KT 1/2SM FG VV002 21/20 A2995 RMK AO2 T02110200
KGLH 231053Z AUTO 00000KT 1/4SM FG VV002 21/20 A2993 RMK AO2 SLP142 T02110200
KGLH 230953Z AUTO 33003KT 1/4SM FG VV002 21/20 A2994 RMK AO2 SLP144 T02110200
KGLH 230853Z AUTO 01003KT 1/4SM FG VV002 21/20 A2994 RMK AO2 SLP144 60000 T02110200 56008
KGLH 230839Z AUTO 02003KT 1/4SM FG VV002 21/20 A2994 RMK AO2 T02110200
KGLH 230805Z AUTO 00000KT 3/4SM BR VV002 21/20 A2995 RMK AO2 T02110200
KGLH 230753Z AUTO 00000KT 1SM BR OVC002 21/20 A2995 RMK AO2 SLP146 T02110200
KGLH 230745Z AUTO 00000KT 1 1/2SM BR OVC002 21/20 A2995 RMK AO2 T02110200
KGLH 230734Z AUTO 06003KT 2 1/2SM BR OVC003 21/20 A2995 RMK AO2 T02110200
KGLH 230653Z AUTO 03003KT 4SM BR OVC003 21/19 A2995 RMK AO2 RAB01E50 SLP148 P0000 T02110194
KGLH 230605Z AUTO 03004KT 5SM -RA BR OVC004 21/19 A2996 RMK AO2 RAB01 P0000 T02110194
KGLH 230553Z AUTO 03006KT 5SM BR OVC005 21/19 A2997 RMK AO2 RAE04 SLP152 P0000 60000 T02110194 10217 20206 403110206 58009
KGLH 230453Z AUTO 04005KT 6SM -RA BR OVC005 21/19 A2998 RMK AO2 RAB48 SLP158 P0000 T02110194
KGLH 230353Z AUTO 03005KT 8SM OVC007 21/19 A2998 RMK AO2 SLP158 T02110189
KGLH 230333Z AUTO 03006KT 8SM BKN006 BKN044 BKN110 21/19 A2998 RMK AO2 T02060189
KGLH 230253Z AUTO 04006KT 7SM FEW007 SCT055 BKN100 21/19 A2999 RMK AO2 SLP161 60000 T02060189 51010
KGLH 230207Z AUTO 02007KT 7SM SCT008 21/19 A2999 RMK AO2 T02060189
KGLH 230153Z AUTO 03007KT 7SM BKN008 21/19 A2999 RMK AO2 RAB07E22 SLP162 P0000 T02060189
KGLH 230053Z AUTO 03009KT 8SM SCT008 21/19 A2998 RMK AO2 SLP157 T02110189
KGLH 230014Z AUTO 02007KT 8SM BKN008 BKN110 22/19 A2997 RMK AO2 T02170189
KGLH 222353Z AUTO 02010KT 8SM SCT009 22/19 A2996 RMK AO2 SLP152 60002 T02170189 10294 20217 50000
KGLH 222253Z 01007KT 10SM OVC011 23/19 A2998 RMK AO2 SLP155 T02280194
KGLH 222212Z 35010KT 10SM BKN012 OVC018 23/20 A2997 RMK AO2 T02330200
KGLH 222200Z 36011KT 10SM SCT013 BKN018 24/21 A2997 RMK AO2 T02390206
KGLH 222153Z 36010KT 10SM FEW013 SCT018 24/21 A2996 RMK AO2 SLP151 T02440206
KGLH 222053Z 01010KT 10SM CLR 26/22 A2995 RMK AO2 SLP145 60002 T02610217 58007
KGLH 222010Z 36008KT 10SM CLR 27/23 A2995 RMK AO2 T02720228
KGLH 221953Z 01008KT 10SM VCTS CLR 28/22 A2995 RMK AO2 SLP147 T02780222
KGLH 221853Z 06003KT 10SM FEW075 BKN090 28/22 A2997 RMK AO2 PK WND 14027/1756 RAB1757E22 TSB04E19 SLP152 P0002 T02830217
KGLH 221819Z 09008KT 5SM VCTS -RA BR FEW021 SCT032 BKN055 24/22 A2998 RMK AO2 PK WND 14027/1756 RAB1757 TSB04E19 P0002 T02440222
KGLH 221810Z 13010G21KT 2 1/2SM TSRA BR BKN030 BKN050 OVC070 24/22 A2998 RMK AO2 PK WND 14027/1756 VIS 1 1/4V5 RAB1757 TSB04 P0002 T02390217
KGLH 221753Z 16012G22KT 10SM VCTS BKN030 BKN038 OVC065 30/22 A3000 RMK AO2 SLP163 T03000217 10311 20228 58009
KGLH 221737Z VRB03KT 10SM VCTS SCT028 BKN035 BKN095 31/22 A2999 RMK AO2 T03060217
KGLH 221704Z 00000KT 10SM FEW023 29/22 A3001 RMK AO2 T02940222
KGLH 221653Z VRB03KT 10SM BKN023 BKN031 29/22 A3001 RMK AO2 SLP167 T02940222
KGLH 221553Z 06005KT 10SM SCT014 BKN025 BKN033 27/23 A3003 RMK AO2 SLP174 T02720228
KGLH 221534Z 02006KT 10SM BKN014 OVC027 27/22 A3003 RMK AO2 T02670222
KGLH 221527Z 02006KT 10SM SCT012 BKN027 28/23 A3003 RMK AO2 T02780228
KGLH 221453Z 04004KT 9SM BKN010 24/22 A3003 RMK AO2 SLP173 T02440222 51007
KGLH 221353Z 02006KT 6SM BR BKN006 24/22 A3002 RMK AO2 CIG 004V008 SLP170 T02390222
KGLH 221328Z 05004KT 5SM BR BKN005 BKN038 OVC050 24/22 A3002 RMK AO2 T02390222
KGLH 221303Z 01004KT 4SM BR BKN004 BKN031 23/22 A3002 RMK AO2 T02330217
KGLH 221253Z 36004KT 3SM BR SCT004 BKN031 23/22 A3002 RMK AO2 SLP171 T02330217
KGLH 221153Z 00000KT 3SM BR FEW004 23/22 A3001 RMK AO2 SLP166 60000 70011 T02280217 10250 20222 53004
KGLH 221137Z AUTO 00000KT 5SM BR FEW004 23/22 A3000 RMK AO2 T02280217
KGLH 221053Z AUTO 03003KT 6SM BR SCT120 23/21 A3000 RMK AO2 SLP165 T02280211
KGLH 221025Z AUTO 00000KT 7SM FEW007 SCT110 23/21 A3000 RMK AO2 T02280211
KGLH 220953Z AUTO 00000KT 5SM BR OVC110 22/21 A3000 RMK AO2 SLP163 T02220211
KGLH 220853Z AUTO 03003KT 8SM CLR 23/22 A3000 RMK AO2 SLP163 60000 T02280217 55008
KGLH 220753Z AUTO 01008KT 10SM FEW060 23/22 A2999 RMK AO2 LTG DSNT NE RAE16 SLP159 P0000 T02330217
KGLH 220744Z AUTO 36009KT 10SM VCTS FEW047 SCT060 23/22 A2999 RMK AO2 LTG DSNT NE RAE16 P0000 T02330217
KGLH 220653Z AUTO 33006KT 9SM -RA FEW043 BKN050 BKN070 24/22 A3001 RMK AO2 RAB53 SLP167 P0000 T02390222
KGLH 220553Z AUTO 25006KT 10SM FEW050 25/22 A3002 RMK AO2 RAB0454E14 SLP171 P0000 60000 T02500222 10294 20244 403280222 50002
KGLH 220453Z AUTO 20004KT 10SM SCT041 BKN060 OVC110 26/22 A3003 RMK AO2 SLP174 T02560222
KGLH 220353Z AUTO 10005KT 10SM CLR 24/22 A3003 RMK AO2 SLP173 T02440222
KGLH 220253Z AUTO 10004KT 10SM CLR 25/22 A3002 RMK AO2 RAB22E34 SLP169 P0000 60000 T02500222 53015
KGLH 220153Z AUTO 09003KT 10SM CLR 27/22 A3000 RMK AO2 SLP163 T02670222
KGLH 220053Z AUTO 10003KT 10SM CLR 27/22 A2998 RMK AO2 SLP157 T02670222
KGLH 212353Z AUTO 10005KT 10SM CLR 29/22 A2997 RMK AO2 SLP154 60007 T02940217 10328 20250 53001
KGLH 212253Z 14007KT 10SM FEW100 32/21 A2996 RMK AO2 SLP150 T03170206
KGLH 212153Z 18004KT 10SM BKN100 BKN120 32/20 A2996 RMK AO2 SLP149 T03220200
KGLH 212053Z VRB05KT 10SM CLR 32/21 A2997 RMK AO2 SLP153 60007 T03170211 56024
KGLH 211953Z 11007KT 10SM SCT095 30/21 A2998 RMK AO2 LTG DSNT NE TSE04 SLP158 T03000211
KGLH 211922Z 13011KT 10SM CLR 28/22 A3000 RMK AO2 TSE04 T02780217
KGLH 211910Z 15014G18KT 10SM VCTS FEW075 28/22 A3001 RMK AO2 LTG DSNT N AND E TSE04 T02830217
KGLH 211853Z 03004KT 10SM TS FEW075 31/22 A3001 RMK AO2 LTG DSNT E AND SE RAE23 TSB49 SLP166 P0007 T03110222
KGLH 211840Z 00000KT 10SM VCTS FEW035 31/21 A3001 RMK AO2 RAE23 P0007 T03060206
KGLH 211814Z 35004KT 3SM RA BKN044 BKN060 OVC095 27/22 A3002 RMK AO2 P0007 T02720217
KGLH 211800Z 22006KT 1SM +RA SCT045 BKN055 OVC110 25/22 A3003 RMK AO2 P0005 T02500217
KGLH 211753Z 22016KT 2SM +RA SCT045 BKN080 OVC100 26/22 A3004 RMK AO2 RAB46 SLP177 P0004 60004 T02610222 10322 20222 56010
KGLH 211653Z VRB03KT 10SM SCT035 SCT120 32/22 A3005 RMK AO2 SLP178 T03170217
KGLH 211553Z 24005KT 10SM CLR 31/22 A3006 RMK AO2 SLP182 T03060222
KGLH 211453Z 24003KT 10SM FEW110 27/22 A3007 RMK AO2 SLP186 T02720222 51008
KGLH 211353Z 19007KT 8SM BKN110 26/22 A3006 RMK AO2 SLP184 T02560222
KGLH 211253Z 19003KT 6SM BR FEW100 24/22 A3006 RMK AO2 SLP184 T02440222
KGLH 211153Z 15005KT 7SM FEW070 22/21 A3005 RMK AO2 SLP179 T02220206 10244 20222 51015
KGLH 211053Z AUTO 20003KT 9SM CLR 22/21 A3003 RMK AO2 SLP173 T02220206
KGLH 210953Z AUTO 18004KT 9SM CLR 23/21 A3002 RMK AO2 SLP168 T02280211
KGLH 210853Z AUTO 19006KT 9SM CLR 22/21 A3000 RMK AO2 SLP163 T02220206 53003
KGLH 210753Z AUTO 19005KT 10SM CLR 23/21 A2999 RMK AO2 SLP159 T02330206
KGLH 210653Z AUTO 15005KT 10SM CLR 24/21 A2999 RMK AO2 SLP159 T02390206
KGLH 210553Z AUTO 18004KT 10SM CLR 25/21 A2999 RMK AO2 SLP159 T02500206 10322 20244 403500200 50006
KGLH 232341Z 2400/2424 10013G24KT P6SM SHRA SCT014 BKN023 BKN070 
     FM240600 12004KT P6SM VCSH BKN050 BKN090 
     FM241600 17007KT P6SM VCTS BKN025CB BKN090